Thetford Mines, Canada
Current Conditions -  °F | °C
As of 3:00 AM on Saturday 29 Nov 2014 (Local Time) from CYSC Reporting Station
Light Snow Light Snow  
Wind Chill:   Ceiling: 2600
Heat Index: 18°   Visibility: 9mi
Dew Point: 14°   Wind: 7mph
Humidity: 86%   Direction: 270°W
Pressure: 30.17"   Gusts: NA
Location:  46.08°N, 71.3°W
Report Text: CYSC 290700Z AUTO 27006KT 9SM -SN BKN026 OVC043 M08/M10 A3017 RMK SLP231
Loading
Personal Weather Stations






























Interactive Weather Map New forecast layout! Learn more

10-Day Weather Forecast

Advertisements
Track Severe Weather on mobile